Terminal Aerodrome Forecast
Issued by NWS Charleston, WV

Current Version | Previous Version | Graphics & Text | Print | Product List | Glossary On
Versions: 1 2 3 4 5 6 7 8 9 10 11 12 13 14 15 16 17 18 19 20 21 22 23 24
428
FTUS41 KRLX 142341
TAFPKB
TAF
KPKB 142341Z 1500/1524 32002KT 2SM -DZ BR OVC005
     FM150500 34003KT 2SM BR OVC006
     FM150800 36002KT 4SM BR OVC012
     FM151200 03004KT P6SM SCT010 BKN035
     FM151600 05005KT P6SM BKN080=

USA.gov is the U.S. government's official web portal to all federal, state and local government web resources and services.